sensor_id;sensor_type;location;lat;lon;timestamp;P1;durP1;ratioP1;P2;durP2;ratioP2
61764;SDS011;50188;48.114;-1.388;2022-08-02T00:04:05;1.90;;;1.80;;
61764;SDS011;50188;48.114;-1.388;2022-08-02T00:06:31;5.88;;;2.42;;
61764;SDS011;50188;48.114;-1.388;2022-08-02T00:08:58;2.40;;;2.28;;
61764;SDS011;50188;48.114;-1.388;2022-08-02T00:11:24;1.92;;;1.80;;
61764;SDS011;50188;48.114;-1.388;2022-08-02T00:13:50;2.17;;;1.98;;
61764;SDS011;50188;48.114;-1.388;2022-08-02T00:16:16;2.30;;;2.20;;
61764;SDS011;50188;48.114;-1.388;2022-08-02T00:18:42;2.20;;;1.92;;
61764;SDS011;50188;48.114;-1.388;2022-08-02T00:21:08;2.08;;;1.80;;
61764;SDS011;50188;48.114;-1.388;2022-08-02T00:23:35;2.10;;;2.00;;
61764;SDS011;50188;48.114;-1.388;2022-08-02T00:26:00;3.00;;;2.80;;
61764;SDS011;50188;48.114;-1.388;2022-08-02T00:28:27;2.70;;;2.50;;
61764;SDS011;50188;48.114;-1.388;2022-08-02T00:30:53;1.80;;;1.70;;
61764;SDS011;50188;48.114;-1.388;2022-08-02T00:33:20;2.92;;;2.40;;
61764;SDS011;50188;48.114;-1.388;2022-08-02T00:35:46;2.75;;;2.03;;
61764;SDS011;50188;48.114;-1.388;2022-08-02T00:38:12;1.67;;;1.58;;
61764;SDS011;50188;48.114;-1.388;2022-08-02T00:40:38;3.58;;;2.40;;
61764;SDS011;50188;48.114;-1.388;2022-08-02T00:43:06;2.40;;;1.98;;
61764;SDS011;50188;48.114;-1.388;2022-08-02T00:45:34;3.25;;;2.28;;
61764;SDS011;50188;48.114;-1.388;2022-08-02T00:48:04;2.42;;;2.22;;
61764;SDS011;50188;48.114;-1.388;2022-08-02T00:50:31;5.28;;;2.70;;
61764;SDS011;50188;48.114;-1.388;2022-08-02T00:52:58;2.38;;;2.28;;
61764;SDS011;50188;48.114;-1.388;2022-08-02T00:55:25;3.95;;;2.03;;
61764;SDS011;50188;48.114;-1.388;2022-08-02T01:00:28;2.80;;;2.60;;
61764;SDS011;50188;48.114;-1.388;2022-08-02T01:02:54;4.03;;;2.17;;
61764;SDS011;50188;48.114;-1.388;2022-08-02T01:05:19;2.20;;;2.10;;
61764;SDS011;50188;48.114;-1.388;2022-08-02T01:07:45;2.50;;;2.17;;
61764;SDS011;50188;48.114;-1.388;2022-08-02T01:10:11;1.77;;;1.67;;
61764;SDS011;50188;48.114;-1.388;2022-08-02T01:12:37;2.13;;;1.58;;
61764;SDS011;50188;48.114;-1.388;2022-08-02T01:15:04;1.95;;;1.85;;
61764;SDS011;50188;48.114;-1.388;2022-08-02T01:26:27;2.67;;;2.47;;
61764;SDS011;50188;48.114;-1.388;2022-08-02T01:29:12;3.70;;;3.05;;
61764;SDS011;50188;48.114;-1.388;2022-08-02T01:32:03;3.03;;;2.30;;
61764;SDS011;50188;48.114;-1.388;2022-08-02T01:37:36;5.13;;;2.45;;
61764;SDS011;50188;48.114;-1.388;2022-08-02T01:40:28;2.45;;;2.25;;
61764;SDS011;50188;48.114;-1.388;2022-08-02T01:42:58;2.58;;;2.35;;
61764;SDS011;50188;48.114;-1.388;2022-08-02T01:45:32;2.97;;;2.78;;
61764;SDS011;50188;48.114;-1.388;2022-08-02T01:47:59;3.30;;;3.00;;
61764;SDS011;50188;48.114;-1.388;2022-08-02T01:50:28;4.57;;;3.25;;
61764;SDS011;50188;48.114;-1.388;2022-08-02T01:52:57;2.95;;;2.72;;
61764;SDS011;50188;48.114;-1.388;2022-08-02T01:55:39;4.35;;;2.88;;
61764;SDS011;50188;48.114;-1.388;2022-08-02T01:58:08;4.03;;;2.72;;
61764;SDS011;50188;48.114;-1.388;2022-08-02T02:00:39;3.33;;;3.13;;
61764;SDS011;50188;48.114;-1.388;2022-08-02T02:03:06;3.45;;;3.20;;
61764;SDS011;50188;48.114;-1.388;2022-08-02T02:05:36;2.30;;;2.10;;
61764;SDS011;50188;48.114;-1.388;2022-08-02T02:08:03;4.25;;;2.97;;
61764;SDS011;50188;48.114;-1.388;2022-08-02T02:10:32;3.93;;;2.73;;
61764;SDS011;50188;48.114;-1.388;2022-08-02T02:13:04;3.43;;;3.23;;
61764;SDS011;50188;48.114;-1.388;2022-08-02T02:15:33;4.10;;;3.70;;
61764;SDS011;50188;48.114;-1.388;2022-08-02T02:18:00;3.08;;;2.88;;
61764;SDS011;50188;48.114;-1.388;2022-08-02T02:20:28;2.85;;;2.60;;
61764;SDS011;50188;48.114;-1.388;2022-08-02T02:22:53;3.55;;;2.97;;
61764;SDS011;50188;48.114;-1.388;2022-08-02T02:25:20;2.80;;;2.60;;
61764;SDS011;50188;48.114;-1.388;2022-08-02T02:27:49;2.80;;;2.60;;
61764;SDS011;50188;48.114;-1.388;2022-08-02T02:30:20;3.88;;;3.05;;
61764;SDS011;50188;48.114;-1.388;2022-08-02T02:32:49;5.75;;;4.60;;
61764;SDS011;50188;48.114;-1.388;2022-08-02T02:35:19;3.78;;;3.42;;
61764;SDS011;50188;48.114;-1.388;2022-08-02T02:37:47;3.47;;;3.17;;
61764;SDS011;50188;48.114;-1.388;2022-08-02T02:40:14;3.75;;;3.55;;
61764;SDS011;50188;48.114;-1.388;2022-08-02T02:42:41;3.30;;;3.08;;
61764;SDS011;50188;48.114;-1.388;2022-08-02T02:45:09;3.72;;;2.88;;
61764;SDS011;50188;48.114;-1.388;2022-08-02T02:47:36;3.33;;;2.95;;
61764;SDS011;50188;48.114;-1.388;2022-08-02T02:50:04;3.28;;;3.08;;
61764;SDS011;50188;48.114;-1.388;2022-08-02T02:52:30;4.05;;;3.75;;
61764;SDS011;50188;48.114;-1.388;2022-08-02T02:54:56;9.07;;;4.35;;
61764;SDS011;50188;48.114;-1.388;2022-08-02T02:57:23;5.82;;;4.22;;
61764;SDS011;50188;48.114;-1.388;2022-08-02T02:59:49;4.25;;;3.95;;
61764;SDS011;50188;48.114;-1.388;2022-08-02T03:02:16;3.50;;;3.30;;
61764;SDS011;50188;48.114;-1.388;2022-08-02T03:04:51;6.18;;;5.07;;
61764;SDS011;50188;48.114;-1.388;2022-08-02T03:07:18;4.32;;;3.45;;
61764;SDS011;50188;48.114;-1.388;2022-08-02T03:09:44;3.75;;;3.40;;
61764;SDS011;50188;48.114;-1.388;2022-08-02T03:12:10;5.10;;;4.35;;
61764;SDS011;50188;48.114;-1.388;2022-08-02T03:14:40;5.88;;;4.78;;
61764;SDS011;50188;48.114;-1.388;2022-08-02T03:17:09;7.47;;;4.32;;
61764;SDS011;50188;48.114;-1.388;2022-08-02T03:19:35;4.38;;;3.75;;
61764;SDS011;50188;48.114;-1.388;2022-08-02T03:22:00;7.78;;;4.00;;
61764;SDS011;50188;48.114;-1.388;2022-08-02T03:24:26;3.80;;;3.60;;
61764;SDS011;50188;48.114;-1.388;2022-08-02T03:26:52;4.55;;;4.15;;
61764;SDS011;50188;48.114;-1.388;2022-08-02T03:29:17;2.50;;;2.30;;
61764;SDS011;50188;48.114;-1.388;2022-08-02T03:31:44;3.78;;;3.00;;
61764;SDS011;50188;48.114;-1.388;2022-08-02T03:34:10;3.35;;;3.05;;
61764;SDS011;50188;48.114;-1.388;2022-08-02T03:36:37;4.50;;;4.15;;
61764;SDS011;50188;48.114;-1.388;2022-08-02T03:39:04;5.00;;;4.47;;
61764;SDS011;50188;48.114;-1.388;2022-08-02T03:41:31;3.40;;;3.20;;
61764;SDS011;50188;48.114;-1.388;2022-08-02T03:43:59;3.35;;;3.00;;
61764;SDS011;50188;48.114;-1.388;2022-08-02T03:46:26;2.75;;;2.55;;
61764;SDS011;50188;48.114;-1.388;2022-08-02T03:48:52;3.35;;;2.45;;
61764;SDS011;50188;48.114;-1.388;2022-08-02T03:51:20;5.47;;;3.60;;
61764;SDS011;50188;48.114;-1.388;2022-08-02T03:53:46;5.88;;;3.70;;
61764;SDS011;50188;48.114;-1.388;2022-08-02T03:56:13;4.00;;;3.50;;
61764;SDS011;50188;48.114;-1.388;2022-08-02T03:58:39;4.25;;;3.95;;
61764;SDS011;50188;48.114;-1.388;2022-08-02T04:01:05;3.55;;;3.35;;
61764;SDS011;50188;48.114;-1.388;2022-08-02T04:03:31;6.70;;;4.18;;
61764;SDS011;50188;48.114;-1.388;2022-08-02T04:05:56;2.83;;;2.63;;
61764;SDS011;50188;48.114;-1.388;2022-08-02T04:08:22;4.25;;;3.95;;
61764;SDS011;50188;48.114;-1.388;2022-08-02T04:10:48;2.55;;;2.35;;
61764;SDS011;50188;48.114;-1.388;2022-08-02T04:13:35;3.83;;;3.60;;
61764;SDS011;50188;48.114;-1.388;2022-08-02T04:16:07;4.03;;;3.72;;
61764;SDS011;50188;48.114;-1.388;2022-08-02T04:18:44;4.20;;;3.80;;
61764;SDS011;50188;48.114;-1.388;2022-08-02T04:21:16;3.53;;;3.25;;
61764;SDS011;50188;48.114;-1.388;2022-08-02T04:23:44;3.70;;;3.40;;
61764;SDS011;50188;48.114;-1.388;2022-08-02T04:26:12;5.05;;;4.35;;
61764;SDS011;50188;48.114;-1.388;2022-08-02T04:28:39;4.25;;;3.92;;
61764;SDS011;50188;48.114;-1.388;2022-08-02T04:31:05;4.85;;;4.45;;
61764;SDS011;50188;48.114;-1.388;2022-08-02T04:33:31;3.90;;;3.60;;
61764;SDS011;50188;48.114;-1.388;2022-08-02T04:35:58;4.45;;;4.05;;
61764;SDS011;50188;48.114;-1.388;2022-08-02T04:38:24;3.78;;;3.35;;
61764;SDS011;50188;48.114;-1.388;2022-08-02T04:40:51;4.50;;;4.10;;
61764;SDS011;50188;48.114;-1.388;2022-08-02T04:43:19;4.50;;;4.13;;
61764;SDS011;50188;48.114;-1.388;2022-08-02T04:45:50;4.05;;;3.75;;
61764;SDS011;50188;48.114;-1.388;2022-08-02T04:48:17;3.97;;;3.67;;
61764;SDS011;50188;48.114;-1.388;2022-08-02T04:50:42;6.03;;;5.53;;
61764;SDS011;50188;48.114;-1.388;2022-08-02T04:53:08;5.22;;;4.72;;
61764;SDS011;50188;48.114;-1.388;2022-08-02T04:55:34;4.28;;;3.60;;
61764;SDS011;50188;48.114;-1.388;2022-08-02T04:57:59;4.18;;;3.88;;
61764;SDS011;50188;48.114;-1.388;2022-08-02T05:00:25;4.00;;;3.72;;
61764;SDS011;50188;48.114;-1.388;2022-08-02T05:02:52;4.40;;;4.10;;
61764;SDS011;50188;48.114;-1.388;2022-08-02T05:05:20;4.22;;;3.92;;
61764;SDS011;50188;48.114;-1.388;2022-08-02T05:10:21;5.13;;;3.45;;
61764;SDS011;50188;48.114;-1.388;2022-08-02T05:12:47;3.53;;;3.33;;
61764;SDS011;50188;48.114;-1.388;2022-08-02T05:15:13;4.20;;;3.88;;
61764;SDS011;50188;48.114;-1.388;2022-08-02T05:17:42;3.75;;;3.20;;
61764;SDS011;50188;48.114;-1.388;2022-08-02T05:20:10;3.45;;;3.17;;
61764;SDS011;50188;48.114;-1.388;2022-08-02T05:22:39;3.42;;;3.17;;
61764;SDS011;50188;48.114;-1.388;2022-08-02T05:25:06;4.28;;;3.85;;
61764;SDS011;50188;48.114;-1.388;2022-08-02T05:27:32;3.65;;;3.45;;
61764;SDS011;50188;48.114;-1.388;2022-08-02T05:29:58;6.90;;;4.50;;
61764;SDS011;50188;48.114;-1.388;2022-08-02T05:32:25;7.22;;;4.68;;
61764;SDS011;50188;48.114;-1.388;2022-08-02T05:34:51;4.40;;;4.10;;
61764;SDS011;50188;48.114;-1.388;2022-08-02T05:37:17;3.88;;;3.63;;
61764;SDS011;50188;48.114;-1.388;2022-08-02T05:39:43;4.88;;;4.47;;
61764;SDS011;50188;48.114;-1.388;2022-08-02T05:42:09;6.15;;;4.15;;
61764;SDS011;50188;48.114;-1.388;2022-08-02T05:44:35;5.15;;;3.88;;
61764;SDS011;50188;48.114;-1.388;2022-08-02T05:47:03;3.63;;;3.42;;
61764;SDS011;50188;48.114;-1.388;2022-08-02T05:49:29;4.60;;;4.10;;
61764;SDS011;50188;48.114;-1.388;2022-08-02T05:51:59;4.88;;;3.83;;
61764;SDS011;50188;48.114;-1.388;2022-08-02T05:57:25;4.18;;;3.88;;
61764;SDS011;50188;48.114;-1.388;2022-08-02T06:00:06;3.83;;;3.50;;
61764;SDS011;50188;48.114;-1.388;2022-08-02T06:02:58;4.07;;;3.38;;
61764;SDS011;50188;48.114;-1.388;2022-08-02T06:05:52;3.13;;;2.83;;
61764;SDS011;50188;48.114;-1.388;2022-08-02T06:08:24;5.13;;;3.95;;
61764;SDS011;50188;48.114;-1.388;2022-08-02T06:10:55;3.50;;;2.95;;
61764;SDS011;50188;48.114;-1.388;2022-08-02T06:13:26;3.13;;;2.92;;
61764;SDS011;50188;48.114;-1.388;2022-08-02T06:15:52;4.35;;;3.47;;
61764;SDS011;50188;48.114;-1.388;2022-08-02T06:18:23;3.63;;;3.33;;
61764;SDS011;50188;48.114;-1.388;2022-08-02T06:20:52;3.42;;;3.22;;
61764;SDS011;50188;48.114;-1.388;2022-08-02T06:23:19;3.58;;;3.20;;
61764;SDS011;50188;48.114;-1.388;2022-08-02T06:25:47;3.25;;;2.92;;
61764;SDS011;50188;48.114;-1.388;2022-08-02T06:28:14;3.65;;;3.35;;
61764;SDS011;50188;48.114;-1.388;2022-08-02T06:30:42;21.60;;;6.28;;
61764;SDS011;50188;48.114;-1.388;2022-08-02T06:33:09;3.63;;;3.30;;
61764;SDS011;50188;48.114;-1.388;2022-08-02T06:35:40;3.10;;;2.67;;
61764;SDS011;50188;48.114;-1.388;2022-08-02T06:38:11;2.55;;;2.45;;
61764;SDS011;50188;48.114;-1.388;2022-08-02T06:41:02;14.82;;;3.97;;
61764;SDS011;50188;48.114;-1.388;2022-08-02T06:43:54;4.32;;;3.90;;
61764;SDS011;50188;48.114;-1.388;2022-08-02T06:46:24;2.95;;;2.75;;
61764;SDS011;50188;48.114;-1.388;2022-08-02T06:48:50;30.48;;;8.27;;
61764;SDS011;50188;48.114;-1.388;2022-08-02T06:51:16;6.38;;;3.80;;
61764;SDS011;50188;48.114;-1.388;2022-08-02T06:53:43;4.88;;;3.25;;
61764;SDS011;50188;48.114;-1.388;2022-08-02T06:56:09;15.40;;;4.00;;
61764;SDS011;50188;48.114;-1.388;2022-08-02T06:58:35;3.58;;;2.22;;
61764;SDS011;50188;48.114;-1.388;2022-08-02T07:01:00;2.22;;;2.03;;
61764;SDS011;50188;48.114;-1.388;2022-08-02T07:03:26;4.05;;;2.42;;
61764;SDS011;50188;48.114;-1.388;2022-08-02T07:05:52;2.22;;;2.03;;
61764;SDS011;50188;48.114;-1.388;2022-08-02T07:08:18;2.22;;;2.05;;
61764;SDS011;50188;48.114;-1.388;2022-08-02T07:10:44;1.90;;;1.80;;
61764;SDS011;50188;48.114;-1.388;2022-08-02T07:13:10;2.75;;;2.60;;
61764;SDS011;50188;48.114;-1.388;2022-08-02T07:15:37;2.22;;;2.13;;
61764;SDS011;50188;48.114;-1.388;2022-08-02T07:18:03;1.83;;;1.70;;
61764;SDS011;50188;48.114;-1.388;2022-08-02T07:20:30;2.00;;;1.85;;
61764;SDS011;50188;48.114;-1.388;2022-08-02T07:22:56;2.90;;;2.47;;
61764;SDS011;50188;48.114;-1.388;2022-08-02T07:25:22;1.80;;;1.70;;
61764;SDS011;50188;48.114;-1.388;2022-08-02T07:27:47;1.38;;;1.38;;
61764;SDS011;50188;48.114;-1.388;2022-08-02T07:30:13;1.63;;;1.52;;
61764;SDS011;50188;48.114;-1.388;2022-08-02T07:32:39;3.28;;;1.70;;
61764;SDS011;50188;48.114;-1.388;2022-08-02T07:35:05;1.58;;;1.30;;
61764;SDS011;50188;48.114;-1.388;2022-08-02T07:37:32;1.17;;;1.08;;
61764;SDS011;50188;48.114;-1.388;2022-08-02T07:39:59;1.23;;;1.02;;
61764;SDS011;50188;48.114;-1.388;2022-08-02T07:42:25;7.68;;;2.10;;
61764;SDS011;50188;48.114;-1.388;2022-08-02T07:44:53;1.42;;;1.33;;
61764;SDS011;50188;48.114;-1.388;2022-08-02T07:47:19;1.20;;;1.10;;
61764;SDS011;50188;48.114;-1.388;2022-08-02T07:49:45;1.58;;;1.48;;
61764;SDS011;50188;48.114;-1.388;2022-08-02T07:52:10;6.25;;;2.03;;
61764;SDS011;50188;48.114;-1.388;2022-08-02T07:54:36;4.40;;;1.40;;
61764;SDS011;50188;48.114;-1.388;2022-08-02T07:57:02;1.63;;;1.52;;
61764;SDS011;50188;48.114;-1.388;2022-08-02T07:59:28;1.10;;;1.00;;
61764;SDS011;50188;48.114;-1.388;2022-08-02T08:01:54;0.80;;;0.80;;
61764;SDS011;50188;48.114;-1.388;2022-08-02T08:04:20;1.88;;;1.17;;
61764;SDS011;50188;48.114;-1.388;2022-08-02T08:06:45;0.95;;;0.93;;
61764;SDS011;50188;48.114;-1.388;2022-08-02T08:09:16;1.42;;;1.13;;
61764;SDS011;50188;48.114;-1.388;2022-08-02T08:11:42;2.92;;;1.20;;
61764;SDS011;50188;48.114;-1.388;2022-08-02T08:14:07;1.10;;;1.00;;
61764;SDS011;50188;48.114;-1.388;2022-08-02T08:16:33;2.60;;;0.80;;
61764;SDS011;50188;48.114;-1.388;2022-08-02T08:18:59;0.98;;;0.98;;
61764;SDS011;50188;48.114;-1.388;2022-08-02T08:21:26;3.00;;;0.90;;
61764;SDS011;50188;48.114;-1.388;2022-08-02T08:23:53;1.90;;;1.17;;
61764;SDS011;50188;48.114;-1.388;2022-08-02T08:26:20;2.30;;;1.10;;
61764;SDS011;50188;48.114;-1.388;2022-08-02T08:28:46;8.82;;;1.55;;
61764;SDS011;50188;48.114;-1.388;2022-08-02T08:31:14;1.10;;;1.10;;
61764;SDS011;50188;48.114;-1.388;2022-08-02T08:33:40;2.35;;;1.88;;
61764;SDS011;50188;48.114;-1.388;2022-08-02T08:36:06;1.38;;;1.23;;
61764;SDS011;50188;48.114;-1.388;2022-08-02T08:38:32;3.45;;;1.15;;
61764;SDS011;50188;48.114;-1.388;2022-08-02T08:40:58;2.10;;;1.58;;
61764;SDS011;50188;48.114;-1.388;2022-08-02T08:43:24;11.15;;;1.67;;
61764;SDS011;50188;48.114;-1.388;2022-08-02T08:45:50;3.95;;;1.10;;
61764;SDS011;50188;48.114;-1.388;2022-08-02T08:48:16;1.90;;;1.02;;
61764;SDS011;50188;48.114;-1.388;2022-08-02T08:50:45;2.20;;;1.10;;
61764;SDS011;50188;48.114;-1.388;2022-08-02T08:53:15;3.35;;;1.08;;
61764;SDS011;50188;48.114;-1.388;2022-08-02T08:55:42;0.68;;;0.68;;
61764;SDS011;50188;48.114;-1.388;2022-08-02T08:58:09;0.90;;;0.90;;
61764;SDS011;50188;48.114;-1.388;2022-08-02T09:00:36;0.98;;;0.98;;
61764;SDS011;50188;48.114;-1.388;2022-08-02T09:03:03;2.60;;;1.45;;
61764;SDS011;50188;48.114;-1.388;2022-08-02T09:05:31;1.45;;;1.30;;
61764;SDS011;50188;48.114;-1.388;2022-08-02T09:07:59;3.50;;;1.00;;
61764;SDS011;50188;48.114;-1.388;2022-08-02T09:10:41;3.25;;;1.13;;
61764;SDS011;50188;48.114;-1.388;2022-08-02T09:13:10;3.25;;;0.80;;
61764;SDS011;50188;48.114;-1.388;2022-08-02T09:15:42;1.00;;;0.80;;
61764;SDS011;50188;48.114;-1.388;2022-08-02T09:18:10;1.23;;;1.10;;
61764;SDS011;50188;48.114;-1.388;2022-08-02T09:20:54;4.70;;;0.80;;
61764;SDS011;50188;48.114;-1.388;2022-08-02T09:23:22;0.88;;;0.88;;
61764;SDS011;50188;48.114;-1.388;2022-08-02T09:25:58;0.85;;;0.68;;
61764;SDS011;50188;48.114;-1.388;2022-08-02T09:28:29;1.25;;;0.75;;
61764;SDS011;50188;48.114;-1.388;2022-08-02T09:30:57;1.65;;;1.05;;
61764;SDS011;50188;48.114;-1.388;2022-08-02T09:33:35;0.90;;;0.90;;
61764;SDS011;50188;48.114;-1.388;2022-08-02T09:36:03;0.98;;;0.93;;
61764;SDS011;50188;48.114;-1.388;2022-08-02T09:38:37;1.98;;;1.10;;
61764;SDS011;50188;48.114;-1.388;2022-08-02T09:41:05;1.20;;;0.82;;
61764;SDS011;50188;48.114;-1.388;2022-08-02T09:43:44;0.95;;;0.90;;
61764;SDS011;50188;48.114;-1.388;2022-08-02T09:46:13;0.68;;;0.68;;
61764;SDS011;50188;48.114;-1.388;2022-08-02T09:48:48;0.95;;;0.93;;
61764;SDS011;50188;48.114;-1.388;2022-08-02T09:51:25;0.70;;;0.70;;
61764;SDS011;50188;48.114;-1.388;2022-08-02T09:53:54;34.92;;;3.90;;
61764;SDS011;50188;48.114;-1.388;2022-08-02T09:56:23;2.13;;;1.00;;
61764;SDS011;50188;48.114;-1.388;2022-08-02T09:58:50;0.80;;;0.80;;
61764;SDS011;50188;48.114;-1.388;2022-08-02T10:01:19;1.02;;;1.02;;
61764;SDS011;50188;48.114;-1.388;2022-08-02T10:03:52;1.25;;;1.13;;
61764;SDS011;50188;48.114;-1.388;2022-08-02T10:06:23;3.63;;;1.07;;
61764;SDS011;50188;48.114;-1.388;2022-08-02T10:08:49;1.23;;;1.10;;
61764;SDS011;50188;48.114;-1.388;2022-08-02T10:11:21;2.47;;;1.00;;
61764;SDS011;50188;48.114;-1.388;2022-08-02T10:13:48;2.78;;;1.02;;
61764;SDS011;50188;48.114;-1.388;2022-08-02T10:16:16;2.90;;;1.13;;
61764;SDS011;50188;48.114;-1.388;2022-08-02T10:18:43;10.65;;;1.35;;
61764;SDS011;50188;48.114;-1.388;2022-08-02T10:21:21;1.58;;;1.20;;
61764;SDS011;50188;48.114;-1.388;2022-08-02T10:23:59;0.82;;;0.82;;
61764;SDS011;50188;48.114;-1.388;2022-08-02T10:26:34;0.80;;;0.70;;
61764;SDS011;50188;48.114;-1.388;2022-08-02T10:29:02;1.90;;;0.70;;
61764;SDS011;50188;48.114;-1.388;2022-08-02T10:31:33;0.63;;;0.63;;
61764;SDS011;50188;48.114;-1.388;2022-08-02T10:34:03;0.80;;;0.70;;
61764;SDS011;50188;48.114;-1.388;2022-08-02T10:36:34;0.68;;;0.68;;
61764;SDS011;50188;48.114;-1.388;2022-08-02T10:39:03;2.83;;;0.70;;
61764;SDS011;50188;48.114;-1.388;2022-08-02T10:44:04;0.70;;;0.70;;
61764;SDS011;50188;48.114;-1.388;2022-08-02T10:46:31;0.60;;;0.60;;
61764;SDS011;50188;48.114;-1.388;2022-08-02T10:48:59;2.47;;;0.70;;
61764;SDS011;50188;48.114;-1.388;2022-08-02T10:51:57;1.75;;;1.17;;
61764;SDS011;50188;48.114;-1.388;2022-08-02T10:54:31;0.50;;;0.50;;
61764;SDS011;50188;48.114;-1.388;2022-08-02T10:57:01;0.98;;;0.98;;
61764;SDS011;50188;48.114;-1.388;2022-08-02T10:59:37;1.92;;;0.73;;
61764;SDS011;50188;48.114;-1.388;2022-08-02T11:02:04;0.57;;;0.57;;
61764;SDS011;50188;48.114;-1.388;2022-08-02T11:04:31;0.80;;;0.80;;
61764;SDS011;50188;48.114;-1.388;2022-08-02T11:07:18;0.88;;;0.88;;
61764;SDS011;50188;48.114;-1.388;2022-08-02T11:09:55;0.70;;;0.70;;
61764;SDS011;50188;48.114;-1.388;2022-08-02T11:12:23;1.17;;;0.73;;
61764;SDS011;50188;48.114;-1.388;2022-08-02T11:14:59;0.95;;;0.95;;
61764;SDS011;50188;48.114;-1.388;2022-08-02T11:17:50;0.43;;;0.43;;
61764;SDS011;50188;48.114;-1.388;2022-08-02T11:20:19;1.50;;;0.75;;
61764;SDS011;50188;48.114;-1.388;2022-08-02T11:22:47;1.92;;;1.20;;
61764;SDS011;50188;48.114;-1.388;2022-08-02T11:25:30;1.02;;;0.90;;
61764;SDS011;50188;48.114;-1.388;2022-08-02T11:27:57;2.38;;;0.57;;
61764;SDS011;50188;48.114;-1.388;2022-08-02T11:30:31;0.75;;;0.75;;
61764;SDS011;50188;48.114;-1.388;2022-08-02T11:32:58;1.17;;;0.77;;
61764;SDS011;50188;48.114;-1.388;2022-08-02T11:35:32;0.60;;;0.60;;
61764;SDS011;50188;48.114;-1.388;2022-08-02T11:38:11;0.80;;;0.80;;
61764;SDS011;50188;48.114;-1.388;2022-08-02T11:40:45;0.57;;;0.57;;
61764;SDS011;50188;48.114;-1.388;2022-08-02T11:43:15;0.80;;;0.80;;
61764;SDS011;50188;48.114;-1.388;2022-08-02T11:45:45;0.75;;;0.75;;
61764;SDS011;50188;48.114;-1.388;2022-08-02T11:48:12;3.00;;;1.67;;
61764;SDS011;50188;48.114;-1.388;2022-08-02T11:50:38;1.15;;;0.80;;
61764;SDS011;50188;48.114;-1.388;2022-08-02T11:53:14;1.33;;;0.65;;
61764;SDS011;50188;48.114;-1.388;2022-08-02T11:55:40;3.50;;;0.57;;
61764;SDS011;50188;48.114;-1.388;2022-08-02T11:58:06;7.03;;;1.35;;
61764;SDS011;50188;48.114;-1.388;2022-08-02T12:00:35;1.10;;;0.80;;
61764;SDS011;50188;48.114;-1.388;2022-08-02T12:03:02;2.30;;;0.57;;
61764;SDS011;50188;48.114;-1.388;2022-08-02T12:05:28;0.70;;;0.70;;
61764;SDS011;50188;48.114;-1.388;2022-08-02T12:07:56;0.57;;;0.57;;
61764;SDS011;50188;48.114;-1.388;2022-08-02T12:10:24;0.55;;;0.55;;
61764;SDS011;50188;48.114;-1.388;2022-08-02T12:12:51;4.78;;;0.95;;
61764;SDS011;50188;48.114;-1.388;2022-08-02T12:15:38;2.13;;;0.98;;
61764;SDS011;50188;48.114;-1.388;2022-08-02T12:18:10;2.15;;;0.57;;
61764;SDS011;50188;48.114;-1.388;2022-08-02T12:20:57;0.50;;;0.50;;
61764;SDS011;50188;48.114;-1.388;2022-08-02T12:23:24;0.65;;;0.63;;
61764;SDS011;50188;48.114;-1.388;2022-08-02T12:26:04;0.65;;;0.65;;
61764;SDS011;50188;48.114;-1.388;2022-08-02T12:28:35;0.70;;;0.70;;
61764;SDS011;50188;48.114;-1.388;2022-08-02T12:31:04;0.77;;;0.70;;
61764;SDS011;50188;48.114;-1.388;2022-08-02T12:33:46;3.25;;;0.95;;
61764;SDS011;50188;48.114;-1.388;2022-08-02T12:36:16;0.75;;;0.70;;
61764;SDS011;50188;48.114;-1.388;2022-08-02T12:38:50;0.77;;;0.77;;
61764;SDS011;50188;48.114;-1.388;2022-08-02T12:41:17;0.70;;;0.70;;
61764;SDS011;50188;48.114;-1.388;2022-08-02T12:43:43;1.25;;;0.80;;
61764;SDS011;50188;48.114;-1.388;2022-08-02T12:46:16;0.73;;;0.50;;
61764;SDS011;50188;48.114;-1.388;2022-08-02T12:48:43;1.02;;;0.50;;
61764;SDS011;50188;48.114;-1.388;2022-08-02T12:51:26;0.70;;;0.70;;
61764;SDS011;50188;48.114;-1.388;2022-08-02T12:54:16;1.10;;;0.57;;
61764;SDS011;50188;48.114;-1.388;2022-08-02T12:56:45;0.77;;;0.50;;
61764;SDS011;50188;48.114;-1.388;2022-08-02T12:59:11;2.00;;;0.70;;
61764;SDS011;50188;48.114;-1.388;2022-08-02T13:01:38;1.30;;;0.80;;
61764;SDS011;50188;48.114;-1.388;2022-08-02T13:04:04;0.60;;;0.60;;
61764;SDS011;50188;48.114;-1.388;2022-08-02T13:06:30;0.73;;;0.50;;
61764;SDS011;50188;48.114;-1.388;2022-08-02T13:08:56;1.95;;;0.45;;
61764;SDS011;50188;48.114;-1.388;2022-08-02T13:11:23;0.60;;;0.60;;
61764;SDS011;50188;48.114;-1.388;2022-08-02T13:13:49;0.65;;;0.65;;
61764;SDS011;50188;48.114;-1.388;2022-08-02T13:16:15;0.55;;;0.55;;
61764;SDS011;50188;48.114;-1.388;2022-08-02T13:18:45;1.42;;;1.10;;
61764;SDS011;50188;48.114;-1.388;2022-08-02T13:21:11;0.77;;;0.77;;
61764;SDS011;50188;48.114;-1.388;2022-08-02T13:23:40;0.80;;;0.70;;
61764;SDS011;50188;48.114;-1.388;2022-08-02T13:26:06;3.92;;;0.60;;
61764;SDS011;50188;48.114;-1.388;2022-08-02T13:28:32;1.35;;;0.77;;
61764;SDS011;50188;48.114;-1.388;2022-08-02T13:30:59;2.58;;;0.70;;
61764;SDS011;50188;48.114;-1.388;2022-08-02T13:33:25;3.33;;;1.08;;
61764;SDS011;50188;48.114;-1.388;2022-08-02T13:35:51;0.98;;;0.73;;
61764;SDS011;50188;48.114;-1.388;2022-08-02T13:38:17;1.38;;;0.52;;
61764;SDS011;50188;48.114;-1.388;2022-08-02T13:40:43;0.80;;;0.45;;
61764;SDS011;50188;48.114;-1.388;2022-08-02T13:43:29;1.13;;;0.82;;
61764;SDS011;50188;48.114;-1.388;2022-08-02T13:45:55;0.50;;;0.50;;
61764;SDS011;50188;48.114;-1.388;2022-08-02T13:48:20;0.80;;;0.80;;
61764;SDS011;50188;48.114;-1.388;2022-08-02T13:50:46;0.52;;;0.40;;
61764;SDS011;50188;48.114;-1.388;2022-08-02T13:53:12;1.02;;;0.80;;
61764;SDS011;50188;48.114;-1.388;2022-08-02T13:55:38;0.85;;;0.65;;
61764;SDS011;50188;48.114;-1.388;2022-08-02T13:58:04;0.70;;;0.70;;
61764;SDS011;50188;48.114;-1.388;2022-08-02T14:00:30;1.20;;;0.73;;
61764;SDS011;50188;48.114;-1.388;2022-08-02T14:02:56;3.30;;;0.82;;
61764;SDS011;50188;48.114;-1.388;2022-08-02T14:05:22;3.03;;;0.45;;
61764;SDS011;50188;48.114;-1.388;2022-08-02T14:07:57;0.50;;;0.50;;
61764;SDS011;50188;48.114;-1.388;2022-08-02T14:10:24;0.40;;;0.40;;
61764;SDS011;50188;48.114;-1.388;2022-08-02T14:12:51;0.82;;;0.45;;
61764;SDS011;50188;48.114;-1.388;2022-08-02T14:15:17;1.30;;;0.77;;
61764;SDS011;50188;48.114;-1.388;2022-08-02T14:17:43;10.43;;;0.90;;
61764;SDS011;50188;48.114;-1.388;2022-08-02T14:20:10;1.70;;;0.70;;
61764;SDS011;50188;48.114;-1.388;2022-08-02T14:22:36;1.27;;;0.80;;
61764;SDS011;50188;48.114;-1.388;2022-08-02T14:25:02;0.73;;;0.73;;
61764;SDS011;50188;48.114;-1.388;2022-08-02T14:27:29;1.27;;;0.75;;
61764;SDS011;50188;48.114;-1.388;2022-08-02T14:29:58;1.73;;;1.63;;
61764;SDS011;50188;48.114;-1.388;2022-08-02T14:32:24;2.22;;;1.05;;
61764;SDS011;50188;48.114;-1.388;2022-08-02T14:34:50;0.77;;;0.77;;
61764;SDS011;50188;48.114;-1.388;2022-08-02T14:37:16;1.48;;;0.88;;
61764;SDS011;50188;48.114;-1.388;2022-08-02T14:39:42;0.70;;;0.70;;
61764;SDS011;50188;48.114;-1.388;2022-08-02T14:42:08;0.95;;;0.90;;
61764;SDS011;50188;48.114;-1.388;2022-08-02T14:44:34;2.58;;;1.17;;
61764;SDS011;50188;48.114;-1.388;2022-08-02T14:47:00;1.95;;;0.98;;
61764;SDS011;50188;48.114;-1.388;2022-08-02T14:49:26;0.68;;;0.68;;
61764;SDS011;50188;48.114;-1.388;2022-08-02T14:51:52;3.53;;;0.85;;
61764;SDS011;50188;48.114;-1.388;2022-08-02T14:54:19;0.52;;;0.52;;
61764;SDS011;50188;48.114;-1.388;2022-08-02T14:56:45;1.90;;;1.13;;
61764;SDS011;50188;48.114;-1.388;2022-08-02T14:59:11;3.42;;;0.88;;
61764;SDS011;50188;48.114;-1.388;2022-08-02T15:01:37;1.95;;;1.02;;
61764;SDS011;50188;48.114;-1.388;2022-08-02T15:04:03;4.97;;;0.75;;
61764;SDS011;50188;48.114;-1.388;2022-08-02T15:06:29;2.78;;;0.75;;
61764;SDS011;50188;48.114;-1.388;2022-08-02T15:09:00;3.20;;;1.05;;